Currently 64°F in Murrieta, California, USA
64°F
64°F / 57°F
3 mph SW
0.00"
Sunday, May 3, 2026 12:26 PM PDT

Murrieta, California Weather Summary
Last 36 Hours

Temperature Winds Hourly Humidity Dewpoint
Time Report Norm Report Norm Max Gusts Precip. Rpt. Norm Rpt. Norm Pressure
1,2Sun 12:26 PM  64.2°F  74°F  3 mph SW  5 mph  10 mph  0.00"  67%  47%  52°F  52°F  29.97"
Sun 12:00 PM  62.8°F  74°F  5 mph S  4 mph  13 mph  0.00"  70%  48%  52°F  52°F  29.98"
Sun 11:00 AM  61.5°F  71°F  6 mph S  4 mph  11 mph  0.00"  76%  53%  54°F  52°F  29.98"
Sun 10:00 AM  60.3°F  67°F  6 mph S  3 mph  9 mph  0.00"  80%  61%  54°F  53°F  29.98"
Sun 09:00 AM  59.3°F  62°F  4 mph S  2 mph  9 mph  0.00"  84%  71%  54°F  52°F  29.97"
Sun 08:00 AM  58.6°F  58°F  5 mph SW  2 mph  10 mph  0.00"  86%  80%  54°F  51°F  29.96"
Sun 07:00 AM  59.0°F  54°F  2 mph S  1 mph  5 mph  0.00"  86%  84%  55°F  49°F  29.94"
Sun 06:00 AM  58.9°F  53°F  calm  1 mph  7 mph  0.00"  85%  85%  54°F  48°F  29.93"
Sun 05:00 AM  58.8°F  53°F  3 mph SW  1 mph  9 mph  0.00"  84%  85%  54°F  49°F  29.92"
Sun 04:00 AM  58.4°F  54°F  1 mph SW  1 mph  11 mph  0.00"  85%  84%  54°F  49°F  29.91"
Sun 03:00 AM  58.2°F  54°F  1 mph SW  1 mph  10 mph  0.00"  88%  83%  55°F  49°F  29.92"
Sun 02:00 AM  57.7°F  55°F  6 mph S  1 mph  14 mph  0.00"  91%  82%  55°F  49°F  29.93"
Sun 01:00 AM  57.6°F  55°F  5 mph S  2 mph  13 mph  0.00"  92%  81%  55°F  50°F  29.95"
3Sun 12:34 AM  57.3°F  56°F  4 mph S  2 mph  11 mph  ----  93%  81%  55°F  50°F  29.95"
Sun 12:00 AM  58.0°F  56°F  7 mph SE  2 mph  14 mph  0.00"  93%  81%  56°F  50°F  29.95"
Sat 11:00 PM  57.7°F  57°F  8 mph S  2 mph  14 mph  0.00"  91%  79%  55°F  50°F  29.93"
Sat 10:00 PM  59.9°F  58°F  4 mph S  3 mph  14 mph  0.00"  87%  78%  56°F  51°F  29.91"
Sat 09:00 PM  60.7°F  60°F  7 mph S  4 mph  15 mph  0.00"  84%  75%  56°F  51°F  29.88"
Sat 08:00 PM  63.0°F  62°F  9 mph S  5 mph  19 mph  0.00"  80%  70%  56°F  52°F  29.87"
Sat 07:00 PM  68.1°F  65°F  10 mph S  6 mph  none  0.00"  70%  63%  58°F  52°F  29.85"
Sat 06:00 PM  70.7°F  69°F  8 mph S  7 mph  19 mph  0.00"  65%  57%  58°F  52°F  29.84"
Sat 05:00 PM  73.3°F  72°F  11 mph SW  8 mph  20 mph  0.00"  60%  52%  58°F  52°F  29.84"
Sat 04:00 PM  74.5°F  74°F  12 mph SW  8 mph  22 mph  0.00"  58%  48%  58°F  52°F  29.84"
Sat 03:00 PM  78.2°F  75°F  10 mph S  7 mph  21 mph  0.00"  52%  46%  58°F  52°F  29.86"
Sat 02:00 PM  80.0°F  75°F  8 mph SW  7 mph  14 mph  0.00"  49%  45%  58°F  52°F  29.88"
Sat 01:00 PM  78.5°F  75°F  6 mph S  6 mph  10 mph  0.00"  51%  45%  58°F  51°F  29.91"
Sat 12:00 PM  76.3°F  74°F  1 mph SE  4 mph  9 mph  0.00"  53%  47%  57°F  51°F  29.93"
Sat 11:00 AM  71.5°F  71°F  4 mph E  4 mph  9 mph  0.00"  65%  52%  59°F  52°F  29.96"
Sat 10:00 AM  66.7°F  67°F  4 mph S  3 mph  7 mph  0.00"  71%  61%  57°F  52°F  29.98"
Sat 09:00 AM  60.3°F  62°F  1 mph W  2 mph  7 mph  0.00"  85%  71%  56°F  52°F  30.00"
Sat 08:00 AM  58.3°F  58°F  2 mph NW  2 mph  5 mph  0.00"  91%  80%  55°F  51°F  30.00"
Sat 07:00 AM  56.6°F  54°F  3 mph SW  1 mph  10 mph  0.00"  94%  85%  55°F  49°F  29.99"
Sat 06:00 AM  54.9°F  53°F  7 mph SW  1 mph  11 mph  0.00"  95%  86%  53°F  48°F  29.97"
Sat 05:00 AM  54.9°F  53°F  5 mph S  1 mph  15 mph  0.00"  95%  85%  54°F  48°F  29.95"
Sat 04:00 AM  53.5°F  53°F  calm  1 mph  5 mph  0.00"  93%  84%  51°F  49°F  29.93"
Sat 03:00 AM  54.0°F  54°F  calm  1 mph  none  0.00"  93%  83%  52°F  49°F  29.93"
Sat 02:00 AM  55.0°F  55°F  calm  1 mph  3 mph  0.00"  91%  82%  52°F  49°F  29.95"
Sat 01:00 AM  55.6°F  55°F  1 mph S  2 mph  5 mph  0.00"  89%  81%  52°F  49°F  29.96"

  1. Current weather data. No green row appears if the current weather data is also the high or low for the current day.
  2. High temperature for the current day.
  3. Low temperature for the current day.

The Murrieta weather pages are a service of WeatherCurrents. Murrieta, California is located in the Temecula Valley, in southwestern Riverside County, at the junctions of the Interstate 15 and 215 highways.
Copyright ©Sun May 03 12:27:26 PDT 2026  WeatherCurrents. All rights reserved. - Submit questions and comments - Privacy Policy

This page automatically refreshes every 10 minutes.